createdAt,value
2023-02-27T00:02:13.911Z,101719.38
2023-02-27T00:04:43.268Z,101722.75
2023-02-27T00:07:14.183Z,101728.06
2023-02-27T00:09:43.646Z,101734.97
2023-02-27T00:12:13.207Z,101735.81
2023-02-27T00:14:42.778Z,101748.03
2023-02-27T00:17:11.831Z,101751.53
2023-02-27T00:19:41.337Z,101750.59
2023-02-27T00:22:10.369Z,101752.38
2023-02-27T00:24:41.164Z,101742.81
2023-02-27T00:27:10.315Z,101741.97
2023-02-27T00:29:40.658Z,101738.44
2023-02-27T00:32:09.939Z,101752.41
2023-02-27T00:34:39.459Z,101751.53
2023-02-27T00:37:08.476Z,101754.13
2023-02-27T00:39:37.790Z,101755.03
2023-02-27T00:42:08.428Z,101759.50
2023-02-27T00:44:38.611Z,101758.66
2023-02-27T00:47:09.487Z,101763.09
2023-02-27T00:49:38.901Z,101764.84
2023-02-27T00:52:08.122Z,101765.75
2023-02-27T00:54:37.473Z,101759.66
2023-02-27T00:57:07.981Z,101770.25
2023-02-27T00:59:37.544Z,101776.47
2023-02-27T01:02:06.718Z,101772.00
2023-02-27T01:04:36.506Z,101770.28
2023-02-27T01:07:05.589Z,101772.00
2023-02-27T01:09:35.074Z,101773.00
2023-02-27T01:12:04.559Z,101773.91
2023-02-27T01:14:36.820Z,101769.50
2023-02-27T01:17:05.965Z,101766.84
2023-02-27T01:19:35.273Z,101765.84
2023-02-27T01:22:04.555Z,101777.25
2023-02-27T01:24:34.406Z,101783.53
2023-02-27T01:27:03.536Z,101781.72
2023-02-27T01:29:34.380Z,101784.28
2023-02-27T01:32:04.175Z,101782.44
2023-02-27T01:34:34.389Z,101781.56
2023-02-27T01:37:04.625Z,101787.69
2023-02-27T01:39:34.155Z,101788.69
2023-02-27T01:42:03.522Z,101797.56
2023-02-27T01:44:58.943Z,101789.69
2023-02-27T01:47:28.040Z,101801.06
2023-02-27T01:49:57.898Z,101804.47
2023-02-27T01:52:27.305Z,101810.50
2023-02-27T01:54:58.361Z,101806.97
2023-02-27T01:57:27.963Z,101806.97
2023-02-27T01:59:58.845Z,101809.59
2023-02-27T02:02:32.966Z,101816.66
2023-02-27T02:05:03.618Z,101815.75
2023-02-27T02:07:33.491Z,101820.09
2023-02-27T02:10:03.743Z,101819.38
2023-02-27T02:12:37.334Z,101814.19
2023-02-27T02:15:09.370Z,101815.94
2023-02-27T02:17:48.298Z,101816.84
2023-02-27T02:20:48.602Z,101819.38
2023-02-27T02:23:53.078Z,101820.28
2023-02-27T02:26:41.006Z,101823.84
2023-02-27T02:29:45.694Z,101823.00
2023-02-27T02:32:55.721Z,101810.69
2023-02-27T02:36:08.122Z,101822.00
2023-02-27T02:39:06.414Z,101818.47
2023-02-27T02:41:49.624Z,101819.28
2023-02-27T02:44:29.094Z,101824.53
2023-02-27T02:47:06.332Z,101826.28
2023-02-27T02:49:44.914Z,101824.63
2023-02-27T02:52:20.391Z,101826.25
2023-02-27T02:54:58.560Z,101832.44
2023-02-27T02:57:34.124Z,101844.81
2023-02-27T03:00:08.112Z,101834.28
2023-02-27T03:02:43.637Z,101835.16
2023-02-27T03:05:20.194Z,101838.69
2023-02-27T03:07:56.576Z,101850.94
2023-02-27T03:10:31.636Z,101849.06
2023-02-27T03:13:06.876Z,101857.81
2023-02-27T03:15:39.699Z,101870.03
2023-02-27T03:18:18.739Z,101875.28
2023-02-27T03:20:54.083Z,101875.28
2023-02-27T03:23:29.659Z,101862.19
2023-02-27T03:26:01.660Z,101874.38
2023-02-27T03:28:36.896Z,101877.19
2023-02-27T03:31:24.682Z,101872.81
2023-02-27T03:34:01.413Z,101871.94
2023-02-27T03:36:39.710Z,101879.00
2023-02-27T03:39:17.193Z,101878.16
2023-02-27T03:41:54.471Z,101890.44
2023-02-27T03:44:37.550Z,101890.34
2023-02-27T03:47:07.234Z,101889.50
2023-02-27T03:49:36.681Z,101887.78
2023-02-27T03:52:07.493Z,101894.72
2023-02-27T03:54:40.844Z,101896.44
2023-02-27T03:57:15.201Z,101900.00
2023-02-27T03:59:44.717Z,101902.59
2023-02-27T04:02:14.355Z,101903.50
2023-02-27T04:04:43.563Z,101901.69
2023-02-27T04:07:24.198Z,101911.41
2023-02-27T04:10:24.003Z,101899.94
2023-02-27T04:13:18.593Z,101902.56
2023-02-27T04:16:08.606Z,101907.75
2023-02-27T04:18:54.772Z,101911.31
2023-02-27T04:21:33.977Z,101908.69
2023-02-27T04:24:18.466Z,101906.91
2023-02-27T04:26:52.540Z,101917.38
2023-02-27T04:29:31.628Z,101913.84
2023-02-27T04:32:03.837Z,101912.09
2023-02-27T04:34:38.627Z,101912.91
2023-02-27T04:37:14.228Z,101922.59
2023-02-27T04:39:51.923Z,101917.28
2023-02-27T04:42:25.727Z,101919.06
2023-02-27T04:45:01.141Z,101913.84
2023-02-27T04:47:33.598Z,101924.44
2023-02-27T04:50:10.468Z,101920.94
2023-02-27T04:52:42.947Z,101928.81
2023-02-27T04:55:19.094Z,101931.41
2023-02-27T04:57:53.559Z,101928.81
2023-02-27T05:00:28.106Z,101935.91
2023-02-27T05:03:02.990Z,101934.19
2023-02-27T05:05:35.505Z,101938.53
2023-02-27T05:08:09.598Z,101933.25
2023-02-27T05:10:46.783Z,101928.81
2023-02-27T05:13:20.691Z,101940.22
2023-02-27T05:15:55.780Z,101950.66
2023-02-27T05:18:26.012Z,101944.53
2023-02-27T05:21:06.978Z,101953.28
2023-02-27T05:23:44.916Z,101953.44
2023-02-27T05:26:20.998Z,101960.50
2023-02-27T05:28:56.523Z,101956.03
2023-02-27T05:31:34.254Z,101953.34
2023-02-27T05:34:11.065Z,101957.69
2023-02-27T05:36:45.383Z,101963.78
2023-02-27T05:39:19.118Z,101963.81
2023-02-27T05:41:54.367Z,101968.19
2023-02-27T05:44:26.863Z,101975.25
2023-02-27T05:47:01.098Z,101984.00
2023-02-27T05:49:34.754Z,101990.13
2023-02-27T05:52:08.085Z,101984.88
2023-02-27T05:54:42.667Z,101991.84
2023-02-27T05:57:17.376Z,102001.56
2023-02-27T05:59:55.383Z,102009.38
2023-02-27T06:02:26.861Z,101997.94
2023-02-27T06:04:56.983Z,102002.38
2023-02-27T06:07:26.531Z,102006.84
2023-02-27T06:09:55.845Z,102013.91
2023-02-27T06:12:25.425Z,102011.41
2023-02-27T06:14:54.503Z,102012.41
2023-02-27T06:17:25.514Z,102024.75
2023-02-27T06:19:54.780Z,102025.56
2023-02-27T06:22:24.136Z,102028.22
2023-02-27T06:24:53.275Z,102024.69
2023-02-27T06:27:22.624Z,102028.19
2023-02-27T06:29:51.728Z,102035.28
2023-02-27T06:32:21.155Z,102029.13
2023-02-27T06:34:51.663Z,102023.84
2023-02-27T06:37:21.925Z,102028.44
2023-02-27T06:39:51.031Z,102030.25
2023-02-27T06:42:20.892Z,102034.66
2023-02-27T06:44:50.252Z,102038.25
2023-02-27T06:47:19.759Z,102041.72
2023-02-27T06:49:50.917Z,102040.00
2023-02-27T06:52:20.377Z,102042.69
2023-02-27T06:54:49.705Z,102047.09
2023-02-27T06:57:19.139Z,102049.00
2023-02-27T06:59:48.156Z,102050.94
2023-02-27T07:02:18.977Z,102063.31
2023-02-27T07:04:48.233Z,102071.31
2023-02-27T07:07:35.759Z,102068.75
2023-02-27T07:10:07.763Z,102075.84
2023-02-27T07:12:41.883Z,102082.94
2023-02-27T07:15:11.967Z,102072.56
2023-02-27T07:17:41.616Z,102079.59
2023-02-27T07:20:13.495Z,102071.78
2023-02-27T07:22:45.299Z,102084.22
2023-02-27T07:25:14.686Z,102083.44
2023-02-27T07:27:46.098Z,102089.63
2023-02-27T07:30:15.960Z,102104.69
2023-02-27T07:32:45.595Z,102095.97
2023-02-27T07:35:14.745Z,102099.56
2023-02-27T07:37:45.673Z,102108.47
2023-02-27T07:40:15.454Z,102105.06
2023-02-27T07:42:44.526Z,102111.25
2023-02-27T07:45:13.852Z,102105.22
2023-02-27T07:47:44.246Z,102108.00
2023-02-27T07:50:14.307Z,102107.25
2023-02-27T07:52:46.105Z,102109.97
2023-02-27T07:55:15.920Z,102110.03
2023-02-27T07:57:45.645Z,102113.66
2023-02-27T08:00:15.718Z,102115.47
2023-02-27T08:02:45.472Z,102114.69
2023-02-27T08:05:15.171Z,102111.28
2023-02-27T08:07:46.284Z,102106.91
2023-02-27T08:10:16.782Z,102112.25
2023-02-27T08:12:48.996Z,102114.06
2023-02-27T08:15:18.379Z,102114.13
2023-02-27T08:17:48.296Z,102130.97
2023-02-27T08:20:19.042Z,102116.94
2023-02-27T08:22:49.894Z,102118.81
2023-02-27T08:25:20.717Z,102125.06
2023-02-27T08:27:50.216Z,102126.88
2023-02-27T08:30:19.648Z,102129.59
2023-02-27T08:32:50.781Z,102127.91
2023-02-27T08:35:20.204Z,102125.41
2023-02-27T08:37:51.271Z,102129.91
2023-02-27T08:40:20.583Z,102133.50
2023-02-27T08:42:51.943Z,102139.75
2023-02-27T08:45:21.216Z,102145.09
2023-02-27T08:47:50.621Z,102143.38
2023-02-27T08:50:19.902Z,102147.81
2023-02-27T08:52:50.646Z,102139.94
2023-02-27T08:55:20.126Z,102152.44
2023-02-27T08:57:49.431Z,102156.03
2023-02-27T09:00:19.525Z,102164.94
2023-02-27T09:02:49.096Z,102159.69
2023-02-27T09:05:18.259Z,102158.00
2023-02-27T09:07:48.173Z,102163.28
2023-02-27T09:10:19.427Z,102170.44
2023-02-27T09:12:49.740Z,102173.13
2023-02-27T09:15:18.549Z,102173.13
2023-02-27T09:17:48.035Z,102168.69
2023-02-27T09:20:19.364Z,102168.72
2023-02-27T09:22:50.849Z,102174.97
2023-02-27T09:25:21.670Z,102181.16
2023-02-27T09:27:51.056Z,102186.50
2023-02-27T09:30:20.428Z,102177.75
2023-02-27T09:32:50.071Z,102178.66
2023-02-27T09:35:20.517Z,102184.00
2023-02-27T09:37:50.738Z,102183.16
2023-02-27T09:40:24.959Z,102181.38
2023-02-27T09:42:58.582Z,102192.88
2023-02-27T09:45:31.167Z,102187.63
2023-02-27T09:48:07.684Z,102189.44
2023-02-27T09:50:41.018Z,102190.38
2023-02-27T09:53:17.499Z,102193.06
2023-02-27T09:55:48.447Z,102194.91
2023-02-27T09:58:39.915Z,102194.09
2023-02-27T10:01:16.157Z,102187.97
2023-02-27T10:04:14.198Z,102199.50
2023-02-27T10:06:49.512Z,102194.22
2023-02-27T10:09:35.055Z,102196.94
2023-02-27T10:12:28.335Z,102204.88
2023-02-27T10:15:10.349Z,102209.31
2023-02-27T10:17:45.211Z,102204.94
2023-02-27T10:20:23.664Z,102213.81
2023-02-27T10:22:55.487Z,102218.25
2023-02-27T10:25:31.715Z,102215.63
2023-02-27T10:28:13.089Z,102215.66
2023-02-27T10:30:42.989Z,102218.28
2023-02-27T10:33:16.936Z,102227.16
2023-02-27T10:35:47.166Z,102228.97
2023-02-27T10:38:20.794Z,102229.91
2023-02-27T10:40:51.114Z,102222.84
2023-02-27T10:43:23.221Z,102229.91
2023-02-27T10:45:54.651Z,102230.84
2023-02-27T10:48:24.063Z,102236.13
2023-02-27T10:50:53.733Z,102231.75
2023-02-27T10:53:25.691Z,102237.97
2023-02-27T10:56:02.779Z,102230.00
2023-02-27T10:58:35.771Z,102230.88
2023-02-27T11:01:08.145Z,102224.69
2023-02-27T11:03:41.527Z,102233.53
2023-02-27T11:06:15.274Z,102234.41
2023-02-27T11:08:44.638Z,102237.09
2023-02-27T11:11:14.483Z,102231.75
2023-02-27T11:13:46.167Z,102234.47
2023-02-27T11:16:20.528Z,102229.16
2023-02-27T11:18:51.260Z,102237.97
2023-02-27T11:21:24.110Z,102245.06
2023-02-27T11:24:00.444Z,102246.84
2023-02-27T11:26:34.150Z,102254.81
2023-02-27T11:29:17.990Z,102254.78
2023-02-27T11:31:52.211Z,102253.91
2023-02-27T11:34:28.560Z,102254.81
2023-02-27T11:37:02.959Z,102261.88
2023-02-27T11:39:39.289Z,102258.31
2023-02-27T11:42:18.872Z,102259.22
2023-02-27T11:44:56.777Z,102263.63
2023-02-27T11:47:30.448Z,102252.13
2023-02-27T11:50:28.546Z,102253.00
2023-02-27T11:53:04.291Z,102249.44
2023-02-27T11:55:35.709Z,102255.66
2023-02-27T11:58:12.140Z,102254.78
2023-02-27T12:00:47.052Z,102259.19
2023-02-27T12:03:23.706Z,102256.53
2023-02-27T12:05:56.781Z,102266.28
2023-02-27T12:08:46.188Z,102252.09
2023-02-27T12:11:24.166Z,102257.44
2023-02-27T12:14:00.043Z,102263.63
2023-02-27T12:16:36.271Z,102268.97
2023-02-27T12:19:17.396Z,102268.06
2023-02-27T12:21:51.068Z,102268.97
2023-02-27T12:24:26.901Z,102268.06
2023-02-27T12:27:10.291Z,102270.75
2023-02-27T12:29:44.927Z,102267.22
2023-02-27T12:32:24.788Z,102274.31
2023-02-27T12:35:01.562Z,102272.53
2023-02-27T12:37:34.451Z,102276.94
2023-02-27T12:40:09.180Z,102277.84
2023-02-27T12:43:01.690Z,102276.09
2023-02-27T12:46:05.188Z,102282.25
2023-02-27T12:48:50.111Z,102283.19
2023-02-27T12:51:39.481Z,102278.72
2023-02-27T12:54:38.408Z,102277.00
2023-02-27T12:57:31.327Z,102287.59
2023-02-27T13:00:13.589Z,102290.25
2023-02-27T13:03:06.274Z,102291.13
2023-02-27T13:05:44.646Z,102296.44
2023-02-27T13:08:38.232Z,102297.31
2023-02-27T13:11:18.648Z,102298.19
2023-02-27T13:13:52.551Z,102291.09
2023-02-27T13:16:26.164Z,102291.09
2023-02-27T13:18:58.734Z,102297.28
2023-02-27T13:21:35.761Z,102292.84
2023-02-27T13:24:21.358Z,102297.28
2023-02-27T13:26:58.109Z,102298.16
2023-02-27T13:29:37.844Z,102296.41
2023-02-27T13:32:41.224Z,102299.94
2023-02-27T13:35:28.109Z,102302.59
2023-02-27T13:38:02.355Z,102307.91
2023-02-27T13:40:40.787Z,102309.69
2023-02-27T13:43:28.928Z,102307.94
2023-02-27T13:46:00.358Z,102305.31
2023-02-27T13:48:48.242Z,102309.72
2023-02-27T13:51:56.778Z,102310.63
2023-02-27T13:54:36.446Z,102315.97
2023-02-27T13:57:24.629Z,102319.50
2023-02-27T14:00:08.902Z,102316.88
2023-02-27T14:02:59.468Z,102327.47
2023-02-27T14:05:37.266Z,102321.22
2023-02-27T14:08:15.026Z,102312.31
2023-02-27T14:10:59.894Z,102321.09
2023-02-27T14:14:05.257Z,102321.91
2023-02-27T14:17:08.026Z,102321.00
2023-02-27T14:19:51.800Z,102318.34
2023-02-27T14:22:44.019Z,102315.72
2023-02-27T14:25:31.970Z,102313.03
2023-02-27T14:28:03.620Z,102329.91
2023-02-27T14:30:46.841Z,102321.09
2023-02-27T14:33:37.437Z,102323.81
2023-02-27T14:36:16.580Z,102332.72
2023-02-27T14:38:46.084Z,102328.34
2023-02-27T14:41:20.848Z,102330.13
2023-02-27T14:43:56.778Z,102326.59
2023-02-27T14:46:30.725Z,102335.47
2023-02-27T14:49:04.433Z,102328.38
2023-02-27T14:51:37.299Z,102331.91
2023-02-27T14:54:13.082Z,102327.47
2023-02-27T14:56:54.313Z,102331.00
2023-02-27T14:59:27.005Z,102330.13
2023-02-27T15:02:02.220Z,102335.44
2023-02-27T15:04:32.732Z,102340.75
2023-02-27T15:07:05.089Z,102338.13
2023-02-27T15:09:40.660Z,102336.34
2023-02-27T15:12:13.373Z,102337.22
2023-02-27T15:14:48.153Z,102341.63
2023-02-27T15:17:20.727Z,102348.69
2023-02-27T15:19:52.939Z,102342.50
2023-02-27T15:22:37.977Z,102346.06
2023-02-27T15:25:09.236Z,102349.63
2023-02-27T15:27:44.110Z,102354.94
2023-02-27T15:30:23.635Z,102357.59
2023-02-27T15:32:55.962Z,102355.88
2023-02-27T15:35:26.960Z,102358.50
2023-02-27T15:38:00.126Z,102354.06
2023-02-27T15:40:34.548Z,102354.91
2023-02-27T15:43:04.747Z,102365.50
2023-02-27T15:45:41.504Z,102375.22
2023-02-27T15:48:16.856Z,102364.47
2023-02-27T15:50:49.262Z,102366.19
2023-02-27T15:53:21.111Z,102366.06
2023-02-27T15:55:53.905Z,102372.16
2023-02-27T15:58:27.668Z,102377.34
2023-02-27T16:01:03.803Z,102372.81
2023-02-27T16:03:40.261Z,102370.03
2023-02-27T16:06:13.889Z,102371.63
2023-02-27T16:08:49.148Z,102372.38
2023-02-27T16:11:21.759Z,102374.94
2023-02-27T16:13:52.436Z,102379.22
2023-02-27T16:16:30.642Z,102380.84
2023-02-27T16:19:03.685Z,102389.56
2023-02-27T16:21:33.423Z,102391.16
2023-02-27T16:24:22.654Z,102399.78
2023-02-27T16:26:54.746Z,102398.75
2023-02-27T16:29:30.066Z,102397.69
2023-02-27T16:32:00.787Z,102397.50
2023-02-27T16:34:45.122Z,102395.56
2023-02-27T16:37:22.575Z,102401.56
2023-02-27T16:39:54.420Z,102396.13
2023-02-27T16:42:23.852Z,102403.81
2023-02-27T16:44:53.774Z,102407.16
2023-02-27T16:47:25.597Z,102400.75
2023-02-27T16:49:55.193Z,102405.88
2023-02-27T16:52:24.458Z,102419.75
2023-02-27T16:54:53.776Z,102419.63
2023-02-27T17:00:14.440Z,102419.22
2023-02-27T17:02:48.332Z,102423.50
2023-02-27T17:05:17.939Z,102436.38
2023-02-27T17:07:47.291Z,102422.97
2023-02-27T17:10:18.729Z,102421.09
2023-02-27T17:12:49.543Z,102420.84
2023-02-27T17:15:19.207Z,102432.00
2023-02-27T17:17:52.313Z,102436.00
2023-02-27T17:20:21.626Z,102427.00
2023-02-27T17:22:50.943Z,102432.88
2023-02-27T17:25:20.056Z,102439.72
2023-02-27T17:27:50.186Z,102445.66
2023-02-27T17:30:24.320Z,102443.66
2023-02-27T17:32:59.692Z,102441.66
2023-02-27T17:35:32.627Z,102438.81
2023-02-27T17:38:02.952Z,102451.78
2023-02-27T17:40:32.361Z,102451.69
2023-02-27T17:43:02.512Z,102456.69
2023-02-27T17:45:31.641Z,102453.88
2023-02-27T17:48:02.646Z,102453.69
2023-02-27T17:50:32.086Z,102465.78
2023-02-27T17:53:01.545Z,102470.75
2023-02-27T17:55:31.996Z,102462.34
2023-02-27T17:58:01.742Z,102471.09
2023-02-27T18:00:30.816Z,102468.16
2023-02-27T18:03:02.994Z,102463.66
2023-02-27T18:05:33.311Z,102458.22
2023-02-27T18:08:05.710Z,102470.31
2023-02-27T18:10:34.955Z,102479.75
2023-02-27T18:13:05.482Z,102478.63
2023-02-27T18:15:34.768Z,102477.47
2023-02-27T18:18:06.134Z,102479.16
2023-02-27T18:20:35.389Z,102480.69
2023-02-27T18:23:04.749Z,102485.75
2023-02-27T18:25:34.001Z,102485.63
2023-02-27T18:28:03.450Z,102484.53
2023-02-27T18:30:34.172Z,102482.59
2023-02-27T18:33:05.821Z,102495.69
2023-02-27T18:35:37.168Z,102491.94
2023-02-27T18:38:08.099Z,102495.19
2023-02-27T18:40:38.342Z,102494.22
2023-02-27T18:43:08.922Z,102504.56
2023-02-27T18:45:42.377Z,102506.16
2023-02-27T18:48:15.991Z,102502.44
2023-02-27T18:50:47.327Z,102505.88
2023-02-27T18:53:16.831Z,102504.00
2023-02-27T18:55:46.170Z,102507.41
2023-02-27T18:58:18.174Z,102514.81
2023-02-27T19:00:47.369Z,102515.50
2023-02-27T19:03:18.398Z,102518.13
2023-02-27T19:05:48.088Z,102518.03
2023-02-27T19:08:17.629Z,102522.09
2023-02-27T19:10:46.898Z,102520.38
2023-02-27T19:13:16.288Z,102523.69
2023-02-27T19:15:47.559Z,102528.81
2023-02-27T19:18:18.510Z,102523.44
2023-02-27T19:20:49.778Z,102522.34
2023-02-27T19:23:20.218Z,102526.50
2023-02-27T19:25:52.179Z,102519.44
2023-02-27T19:28:21.756Z,102526.25
2023-02-27T19:30:50.771Z,102523.56
2023-02-27T19:33:21.706Z,102526.72
2023-02-27T19:35:55.788Z,102526.69
2023-02-27T19:38:25.222Z,102534.59
2023-02-27T19:40:54.403Z,102540.53
2023-02-27T19:43:23.750Z,102536.03
2023-02-27T19:45:53.021Z,102542.84
2023-02-27T19:48:24.041Z,102543.47
2023-02-27T19:50:53.402Z,102538.94
2023-02-27T19:53:22.887Z,102534.28
2023-02-27T19:56:00.525Z,102538.66
2023-02-27T19:58:30.555Z,102542.09
2023-02-27T20:01:00.138Z,102542.00
2023-02-27T20:03:31.427Z,102557.50
2023-02-27T20:06:00.974Z,102553.03
2023-02-27T20:08:33.259Z,102550.25
2023-02-27T20:11:05.739Z,102560.59
2023-02-27T20:13:35.821Z,102563.91
2023-02-27T20:16:07.526Z,102554.16
2023-02-27T20:18:40.786Z,102554.78
2023-02-27T20:21:12.925Z,102559.16
2023-02-27T20:23:43.676Z,102561.63
2023-02-27T20:26:17.957Z,102563.16
2023-02-27T20:28:52.148Z,102576.84
2023-02-27T20:31:24.586Z,102570.41
2023-02-27T20:33:58.345Z,102565.22
2023-02-27T20:36:27.743Z,102563.31
2023-02-27T20:38:58.080Z,102568.34
2023-02-27T20:41:29.882Z,102572.75
2023-02-27T20:44:00.237Z,102575.06
2023-02-27T20:46:32.757Z,102580.16
2023-02-27T20:49:07.522Z,102581.97
2023-02-27T20:51:40.101Z,102575.50
2023-02-27T20:54:16.508Z,102580.53
2023-02-27T20:56:46.069Z,102576.97
2023-02-27T20:59:16.965Z,102571.47
2023-02-27T21:01:51.799Z,102582.50
2023-02-27T21:04:26.304Z,102590.19
2023-02-27T21:06:56.293Z,102586.88
2023-02-27T21:09:25.513Z,102584.97
2023-02-27T21:11:55.171Z,102588.00
2023-02-27T21:14:24.367Z,102586.34
2023-02-27T21:16:53.401Z,102582.66
2023-02-27T21:19:24.645Z,102588.72
2023-02-27T21:21:53.833Z,102591.31
2023-02-27T21:24:23.229Z,102585.94
2023-02-27T21:26:52.734Z,102592.81
2023-02-27T21:29:23.025Z,102589.13
2023-02-27T21:31:52.637Z,102586.38
2023-02-27T21:34:26.278Z,102585.41
2023-02-27T21:36:57.523Z,102587.91
2023-02-27T21:39:28.145Z,102581.72
2023-02-27T21:41:57.593Z,102582.47
2023-02-27T21:44:27.097Z,102586.50
2023-02-27T21:46:59.544Z,102584.59
2023-02-27T21:49:31.262Z,102590.69
2023-02-27T21:52:00.691Z,102590.63
2023-02-27T21:54:30.198Z,102586.56
2023-02-27T21:57:02.008Z,102589.09
2023-02-27T21:59:31.638Z,102588.22
2023-02-27T22:02:00.896Z,102588.94
2023-02-27T22:04:33.019Z,102593.22
2023-02-27T22:07:02.272Z,102593.28
2023-02-27T22:09:31.584Z,102588.69
2023-02-27T22:12:00.962Z,102586.06
2023-02-27T22:14:30.342Z,102586.75
2023-02-27T22:17:00.168Z,102586.47
2023-02-27T22:19:29.493Z,102583.78
2023-02-27T22:21:59.919Z,102579.09
2023-02-27T22:24:31.945Z,102579.16
2023-02-27T22:27:01.087Z,102579.03
2023-02-27T22:29:31.805Z,102580.78
2023-02-27T22:32:01.073Z,102578.88
2023-02-27T22:34:30.474Z,102589.16
2023-02-27T22:37:01.109Z,102577.50
2023-02-27T22:39:30.629Z,102578.50
2023-02-27T22:41:59.790Z,102579.25
2023-02-27T22:44:29.296Z,102579.84
2023-02-27T22:46:58.404Z,102574.56
2023-02-27T22:49:27.856Z,102579.63
2023-02-27T22:51:57.137Z,102576.19
2023-02-27T22:54:27.976Z,102576.19
2023-02-27T22:56:58.304Z,102583.88
2023-02-27T22:59:28.126Z,102582.09
2023-02-27T23:01:57.294Z,102579.31
2023-02-27T23:04:27.047Z,102572.25
2023-02-27T23:06:56.763Z,102578.13
2023-02-27T23:09:27.525Z,102584.88
2023-02-27T23:11:57.137Z,102582.94
2023-02-27T23:14:26.718Z,102580.88
2023-02-27T23:16:55.772Z,102585.06
2023-02-27T23:19:25.371Z,102586.78
2023-02-27T23:21:54.502Z,102579.63
2023-02-27T23:24:23.846Z,102583.94
2023-02-27T23:26:54.668Z,102589.94
2023-02-27T23:29:24.163Z,102589.03
2023-02-27T23:31:53.807Z,102585.44
2023-02-27T23:34:23.393Z,102581.88
2023-02-27T23:36:53.017Z,102575.56
2023-02-27T23:39:22.750Z,102581.63
2023-02-27T23:41:53.332Z,102579.03
2023-02-27T23:44:41.375Z,102569.38
2023-02-27T23:47:11.066Z,102574.47
2023-02-27T23:49:43.956Z,102579.69
2023-02-27T23:52:13.222Z,102582.88
2023-02-27T23:54:43.123Z,102589.34
2023-02-27T23:57:13.764Z,102585.66
2023-02-27T23:59:43.258Z,102581.53
